Time;durP1;ratioP1;P1;durP2;ratioP2;P2;SDS_P1;SDS_P2;PMS_P1;PMS_P2;Temp;Humidity;BMP_temperature;BMP_pressure;BME280_temperature;BME280_humidity;BME280_pressure;Samples;Min_cycle;Max_cycle;Signal;HPM_P1;HPM_P2
2022/08/05 00:01:30;;;;;;;4.93;4.47;;;;;;;22.88;60.53;94977.81;5032242;28;20444;-77
2022/08/05 00:03:57;;;;;;;5.97;5.47;;;;;;;22.97;59.60;94972.03;5013457;28;20561;-78
2022/08/05 00:06:24;;;;;;;5.87;5.33;;;;;;;22.94;59.95;94971.63;5032351;28;20528;-78
2022/08/05 00:08:51;;;;;;;5.87;5.37;;;;;;;22.92;59.91;94957.63;5032293;28;20442;-77
2022/08/05 00:11:17;;;;;;;5.87;5.47;;;;;;;23.01;60.18;94970.59;5032061;28;20450;-77
2022/08/05 00:13:45;;;;;;;5.90;5.50;;;;;;;22.97;59.54;94965.88;5031708;28;20459;-78
2022/08/05 00:16:14;;;;;;;5.47;4.97;;;;;;;22.91;59.57;94967.53;5031830;28;20486;-78
2022/08/05 00:18:44;;;;;;;9.17;5.00;;;;;;;22.96;60.25;94964.22;5031698;28;20455;-78
2022/08/05 00:21:12;;;;;;;6.47;5.00;;;;;;;22.97;59.82;94966.69;5031707;28;20454;-78
2022/08/05 00:23:39;;;;;;;5.57;5.07;;;;;;;23.01;59.48;94969.78;5031743;28;20450;-78
2022/08/05 00:26:07;;;;;;;5.73;5.23;;;;;;;22.95;59.45;94962.56;5031697;28;20447;-78
2022/08/05 00:28:35;;;;;;;5.93;5.53;;;;;;;22.89;59.84;94958.88;5031788;28;20443;-78
2022/08/05 00:31:02;;;;;;;5.60;5.10;;;;;;;22.81;59.88;94965.22;5031917;28;20447;-76
2022/08/05 00:33:30;;;;;;;5.93;5.37;;;;;;;22.81;60.18;94962.53;5013341;28;20462;-77
2022/08/05 00:35:57;;;;;;;5.87;5.40;;;;;;;22.85;60.61;94955.78;5031767;28;20487;-78
2022/08/05 00:38:24;;;;;;;5.83;5.33;;;;;;;22.88;60.31;94959.91;5031899;28;20512;-77
2022/08/05 00:40:53;;;;;;;6.50;6.00;;;;;;;22.74;60.70;94964.34;5031364;28;20447;-77
2022/08/05 00:43:21;;;;;;;6.10;5.70;;;;;;;22.65;61.29;94962.91;5031922;28;20450;-78
2022/08/05 00:45:48;;;;;;;7.07;6.47;;;;;;;22.62;61.06;94963.31;5031717;28;20512;-77
2022/08/05 00:48:17;;;;;;;6.03;5.53;;;;;;;22.64;61.92;94961.25;5031830;28;20447;-78
2022/08/05 00:50:47;;;;;;;6.50;5.90;;;;;;;22.76;62.29;94974.84;5031555;28;20455;-78
2022/08/05 00:53:14;;;;;;;6.10;5.60;;;;;;;22.74;61.37;94972.38;5031461;28;20446;-78
2022/08/05 00:55:42;;;;;;;6.40;5.80;;;;;;;22.74;62.79;94964.34;5031341;28;20456;-77
2022/08/05 00:58:08;;;;;;;6.80;6.20;;;;;;;22.81;62.85;94970.56;5031936;28;20504;-78
2022/08/05 01:00:35;;;;;;;8.80;5.73;;;;;;;22.75;63.01;94968.69;5012610;28;20498;-78
2022/08/05 01:03:02;;;;;;;13.43;7.00;;;;;;;22.66;63.09;94969.91;5031570;28;20454;-78
2022/08/05 01:05:29;;;;;;;5.83;5.33;;;;;;;22.58;63.50;94971.97;5031649;28;20794;-78
2022/08/05 01:07:57;;;;;;;9.33;6.37;;;;;;;22.59;63.62;94969.06;5031454;28;20447;-78
2022/08/05 01:10:30;;;;;;;7.50;6.90;;;;;;;22.72;64.12;94968.25;5031471;28;20473;-77
2022/08/05 01:13:03;;;;;;;8.23;6.63;;;;;;;22.81;63.61;94957.19;5031284;28;20793;-77
2022/08/05 01:15:39;;;;;;;6.80;5.90;;;;;;;22.86;64.71;94965.47;5031713;28;20442;-77
2022/08/05 01:18:12;;;;;;;8.17;7.37;;;;;;;22.87;63.82;94971.63;5031337;28;20446;-78
2022/08/05 01:20:50;;;;;;;6.93;6.13;;;;;;;22.88;64.08;94961.75;5031490;28;20446;-78
2022/08/05 01:23:35;;;;;;;6.87;6.27;;;;;;;22.92;64.24;94968.34;5013873;28;20457;-77
2022/08/05 01:26:20;;;;;;;6.27;5.77;;;;;;;22.99;64.75;94969.16;5031439;28;20442;-77
2022/08/05 01:28:54;;;;;;;7.07;6.50;;;;;;;22.93;63.40;94965.47;5031318;28;20442;-78
2022/08/05 01:31:28;;;;;;;6.00;5.40;;;;;;;22.93;62.69;94967.31;5032284;28;20453;-78
2022/08/05 01:34:02;;;;;;;6.40;5.90;;;;;;;22.76;62.05;94964.16;5034804;28;20445;-78
2022/08/05 01:36:32;;;;;;;6.70;6.10;;;;;;;22.78;62.73;94968.28;5034763;28;20485;-77
2022/08/05 01:39:00;;;;;;;5.70;5.30;;;;;;;22.75;62.38;94976.72;5035054;28;20477;-77
2022/08/05 01:41:29;;;;;;;6.37;5.77;;;;;;;22.72;62.29;94974.44;5034922;28;20960;-78
2022/08/05 01:43:58;;;;;;;7.00;6.27;;;;;;;22.64;62.81;94969.28;5034451;28;20454;-77
2022/08/05 01:46:26;;;;;;;6.77;6.27;;;;;;;22.66;63.02;94969.91;5034754;28;20454;-78
2022/08/05 01:48:55;;;;;;;6.20;5.70;;;;;;;22.53;63.34;94969.84;5034347;28;20443;-79
2022/08/05 01:51:23;;;;;;;6.80;6.20;;;;;;;22.57;63.41;94971.13;5034301;28;20530;-77
2022/08/05 01:53:52;;;;;;;6.10;5.70;;;;;;;22.51;62.89;94971.91;5015581;28;20446;-78
2022/08/05 01:56:22;;;;;;;6.60;6.00;;;;;;;22.51;63.41;94969.25;5034331;28;20490;-77
2022/08/05 01:58:52;;;;;;;8.20;5.90;;;;;;;22.50;63.97;94971.09;5034381;28;20446;-78
2022/08/05 02:01:21;;;;;;;6.47;5.97;;;;;;;22.48;63.04;94970.47;5015596;28;20442;-78
2022/08/05 02:03:51;;;;;;;6.03;5.63;;;;;;;22.47;63.89;94966.16;4999609;28;20887;-78
2022/08/05 02:06:18;;;;;;;6.63;6.13;;;;;;;22.56;63.96;94969.47;5034467;28;20992;-78
2022/08/05 02:08:45;;;;;;;10.70;6.20;;;;;;;22.63;63.33;94977.53;5034008;28;20493;-78
2022/08/05 02:11:15;;;;;;;6.27;5.80;;;;;;;22.70;63.31;94971.16;5034354;28;20453;-77
2022/08/05 02:13:51;;;;;;;7.87;5.70;;;;;;;22.66;63.12;94977.94;5034089;28;20442;-77
2022/08/05 02:16:23;;;;;;;9.63;5.93;;;;;;;22.69;62.87;94976.69;5034108;28;20559;-77
2022/08/05 02:18:54;;;;;;;7.10;6.40;;;;;;;22.70;63.30;94965.78;5033975;28;20442;-78
2022/08/05 02:21:25;;;;;;;6.10;5.60;;;;;;;22.76;62.60;94964.97;5031519;28;20966;-78
2022/08/05 02:23:56;;;;;;;7.50;6.80;;;;;;;22.86;61.72;94970.81;5032909;28;20441;-78
2022/08/05 02:26:33;;;;;;;10.47;6.43;;;;;;;22.74;61.68;94963.53;5034077;28;20204;-78
2022/08/05 02:29:01;;;;;;;6.60;6.00;;;;;;;22.51;62.09;94956.69;5033793;28;20792;-79
2022/08/05 02:31:32;;;;;;;6.83;6.27;;;;;;;22.25;62.27;94959.28;5033757;28;20995;-78
2022/08/05 02:34:03;;;;;;;6.00;5.50;;;;;;;22.02;62.97;94956.91;5033627;28;20820;-79
2022/08/05 02:36:32;;;;;;;6.20;5.70;;;;;;;21.80;64.09;94958.03;5033948;28;20541;-79
2022/08/05 02:39:01;;;;;;;9.47;7.10;;;;;;;21.68;64.76;94959.59;5035116;28;20433;-80
2022/08/05 02:41:30;;;;;;;6.90;6.30;;;;;;;21.58;64.86;94952.75;5034611;28;20451;-80
2022/08/05 02:43:58;;;;;;;6.20;5.70;;;;;;;21.44;65.61;94956.38;5034178;28;20453;-80
2022/08/05 02:46:27;;;;;;;19.03;7.00;;;;;;;21.37;66.06;94955.50;5033907;28;20443;-80
2022/08/05 02:48:57;;;;;;;8.03;6.60;;;;;;;21.26;65.97;94961.38;5034541;28;20446;-79
2022/08/05 02:51:24;;;;;;;5.77;5.33;;;;;;;21.15;66.58;94960.03;5034921;28;20442;-80
2022/08/05 02:53:52;;;;;;;7.20;6.60;;;;;;;21.07;66.41;94956.66;5034773;28;20857;-79
2022/08/05 02:56:19;;;;;;;6.33;5.83;;;;;;;20.94;66.96;94960.88;5034459;28;20455;-79
2022/08/05 02:58:47;;;;;;;6.17;5.67;;;;;;;20.88;67.08;94958.16;5034159;28;21236;-79
2022/08/05 03:01:22;;;;;;;6.60;6.10;;;;;;;20.80;67.16;94958.28;5034434;28;20454;-80
2022/08/05 03:03:52;;;;;;;6.60;6.10;;;;;;;20.69;68.00;94959.63;5034625;28;20948;-78
2022/08/05 03:06:21;;;;;;;5.87;5.40;;;;;;;20.64;68.43;94960.19;5034810;28;20845;-79
2022/08/05 03:08:49;;;;;;;7.20;6.60;;;;;;;20.56;68.81;94964.81;5034346;28;20447;-79
2022/08/05 03:11:21;;;;;;;7.07;6.57;;;;;;;20.47;69.57;94955.28;5035038;28;20446;-80
2022/08/05 03:13:48;;;;;;;7.90;7.10;;;;;;;20.41;70.02;94955.03;5034395;28;20434;-79
2022/08/05 03:16:15;;;;;;;6.57;6.00;;;;;;;20.34;70.77;94956.78;5034189;28;20909;-79
2022/08/05 03:18:44;;;;;;;7.20;6.60;;;;;;;20.23;71.11;94962.56;5033987;28;20444;-78
2022/08/05 03:21:11;;;;;;;8.17;7.33;;;;;;;20.16;71.97;94960.84;5034219;28;20447;-77
2022/08/05 03:23:41;;;;;;;9.90;6.60;;;;;;;20.16;74.64;94959.00;5034375;28;20492;-77
2022/08/05 03:26:09;;;;;;;8.40;7.70;;;;;;;20.20;74.27;94960.28;5034323;28;20446;-78
2022/08/05 03:28:37;;;;;;;8.60;7.80;;;;;;;20.40;79.59;94961.38;5034073;28;21188;-76
2022/08/05 03:31:05;;;;;;;9.10;8.20;;;;;;;20.68;77.59;94964.13;5033727;28;20910;-77
2022/08/05 03:33:32;;;;;;;8.10;7.30;;;;;;;20.90;73.16;94961.47;5033709;28;20451;-82
2022/08/05 03:35:59;;;;;;;7.23;6.63;;;;;;;21.03;70.58;94953.56;5033488;28;20803;-79
2022/08/05 03:38:27;;;;;;;9.23;6.10;;;;;;;20.95;69.31;94965.19;5034303;28;20493;-79
2022/08/05 03:40:55;;;;;;;8.47;7.67;;;;;;;21.41;84.43;94972.78;5033862;28;20466;-77
2022/08/05 03:43:24;;;;;;;8.00;6.50;;;;;;;22.01;78.52;94962.47;5033733;28;20447;-78
2022/08/05 03:45:52;;;;;;;7.17;6.63;;;;;;;22.56;72.36;94966.81;5033513;28;20442;-78
2022/08/05 03:48:20;;;;;;;8.33;7.03;;;;;;;23.08;69.64;94970.59;5033918;28;20508;-79
2022/08/05 03:50:52;;;;;;;6.73;6.10;;;;;;;23.36;67.35;94973.91;5033450;28;20455;-79
2022/08/05 03:53:28;;;;;;;6.80;6.20;;;;;;;23.64;65.31;94972.88;5033160;28;20507;-79
2022/08/05 03:56:03;;;;;;;7.40;6.80;;;;;;;24.08;63.88;94974.84;5033230;28;20914;-78
2022/08/05 03:58:32;;;;;;;7.43;5.83;;;;;;;24.33;60.08;94972.31;5033534;28;20493;-78
2022/08/05 04:01:02;;;;;;;7.00;6.50;;;;;;;24.37;59.69;94971.69;5033558;28;20605;-78
2022/08/05 04:03:34;;;;;;;6.17;5.57;;;;;;;24.32;58.36;94970.69;5015279;28;20450;-79
2022/08/05 04:06:02;;;;;;;7.20;6.60;;;;;;;24.10;57.39;94978.97;5033010;28;20454;-79
2022/08/05 04:08:30;;;;;;;8.20;6.13;;;;;;;23.87;58.88;94969.75;5033203;28;20449;-78
2022/08/05 04:10:57;;;;;;;7.67;7.07;;;;;;;23.73;59.15;94971.66;5033155;28;20473;-78
2022/08/05 04:13:26;;;;;;;8.20;6.10;;;;;;;23.73;60.18;94971.66;5033536;28;20431;-78
2022/08/05 04:15:53;;;;;;;6.40;5.80;;;;;;;23.89;59.94;94971.19;5033001;28;20439;-79
2022/08/05 04:18:22;;;;;;;7.53;6.93;;;;;;;24.20;59.13;94967.78;5033495;28;20485;-79
2022/08/05 04:20:53;;;;;;;6.83;6.20;;;;;;;24.41;57.88;94964.03;5033306;28;20446;-79
2022/08/05 04:23:21;;;;;;;9.13;6.50;;;;;;;24.51;57.70;94968.91;5033414;28;20533;-79
2022/08/05 04:25:48;;;;;;;9.60;7.20;;;;;;;24.63;56.44;94968.03;5033086;28;20469;-79
2022/08/05 04:28:15;;;;;;;8.80;5.90;;;;;;;24.88;56.76;94965.41;5032935;28;20454;-78
2022/08/05 04:30:43;;;;;;;7.70;6.37;;;;;;;25.19;56.40;94967.31;5032466;28;20528;-78
2022/08/05 04:33:10;;;;;;;10.53;6.97;;;;;;;25.24;55.45;94964.78;5032858;28;20437;-81
2022/08/05 04:35:37;;;;;;;8.00;6.80;;;;;;;25.35;55.41;94965.09;5032958;28;20446;-79
2022/08/05 04:38:04;;;;;;;9.10;7.00;;;;;;;25.50;54.66;94962.91;5033204;28;20482;-79
2022/08/05 04:40:34;;;;;;;7.40;6.80;;;;;;;25.56;54.34;94967.41;5033105;28;20450;-79
2022/08/05 04:43:00;;;;;;;9.33;7.70;;;;;;;25.54;54.42;94970.31;5034029;28;20949;-79
2022/08/05 04:45:27;;;;;;;8.50;7.80;;;;;;;25.54;53.58;94972.16;5032771;28;20454;-78
2022/08/05 04:48:03;;;;;;;9.50;7.63;;;;;;;25.49;53.98;94975.53;5032248;28;20439;-79
2022/08/05 04:50:30;;;;;;;7.70;6.90;;;;;;;25.12;54.21;94965.69;5032621;28;20565;-79
2022/08/05 04:52:57;;;;;;;9.77;7.07;;;;;;;24.53;56.37;94973.03;5032987;28;20454;-80
2022/08/05 04:55:23;;;;;;;11.33;7.57;;;;;;;24.93;56.26;94970.13;5032830;28;20454;-79
2022/08/05 04:57:53;;;;;;;7.57;6.50;;;;;;;25.04;55.96;94969.47;5032706;28;20490;-80
2022/08/05 05:00:20;;;;;;;8.80;7.10;;;;;;;25.38;55.64;94964.66;5032820;28;20528;-80
2022/08/05 05:02:47;;;;;;;8.00;7.20;;;;;;;25.46;54.60;94967.09;5032692;28;20465;-79
2022/08/05 05:05:16;;;;;;;7.87;7.10;;;;;;;25.54;54.81;94964.09;5033645;28;20454;-79
2022/08/05 05:07:43;;;;;;;8.93;7.10;;;;;;;25.74;54.07;94959.41;5019306;28;20455;-78
2022/08/05 05:10:09;;;;;;;7.60;6.90;;;;;;;25.67;53.75;94957.81;5018251;28;20462;-79
2022/08/05 05:12:36;;;;;;;10.40;7.30;;;;;;;25.57;53.81;94961.81;5036203;28;20450;-79
2022/08/05 05:15:04;;;;;;;8.10;7.30;;;;;;;25.83;53.05;94960.75;5036027;28;20972;-78
2022/08/05 05:17:37;;;;;;;7.53;6.60;;;;;;;26.08;52.65;94949.13;5036242;28;20498;-79
2022/08/05 05:20:06;;;;;;;22.20;6.10;;;;;;;26.09;51.80;94956.97;5036337;28;20959;-80
2022/08/05 05:22:34;;;;;;;7.63;6.80;;;;;;;26.48;52.15;94962.94;5036210;28;20901;-80
2022/08/05 05:25:01;;;;;;;10.23;6.70;;;;;;;26.75;51.01;94958.84;5035887;28;20853;-79
2022/08/05 05:27:28;;;;;;;8.17;6.40;;;;;;;27.06;50.32;94955.09;5036147;28;20438;-78
2022/08/05 05:29:57;;;;;;;10.13;5.90;;;;;;;27.18;49.47;94955.13;5036245;28;20524;-79
2022/08/05 05:32:24;;;;;;;7.93;7.17;;;;;;;27.34;49.84;94950.94;5016675;28;20446;-78
2022/08/05 05:34:51;;;;;;;6.97;6.40;;;;;;;27.48;49.97;94956.94;5033803;28;20457;-78
2022/08/05 05:37:17;;;;;;;6.40;5.90;;;;;;;27.60;48.78;94950.50;5035821;28;20485;-78
2022/08/05 05:39:46;;;;;;;10.50;6.13;;;;;;;27.74;49.24;94960.00;5035643;28;20463;-78
2022/08/05 05:42:12;;;;;;;7.83;6.63;;;;;;;27.66;49.10;94962.25;5034661;28;20456;-78
2022/08/05 05:44:39;;;;;;;7.23;6.53;;;;;;;27.75;49.54;94956.25;5034598;28;20446;-79
2022/08/05 05:47:06;;;;;;;6.77;5.90;;;;;;;27.64;49.03;94965.16;5034396;28;20473;-78
2022/08/05 05:49:33;;;;;;;6.83;6.33;;;;;;;27.70;47.89;94964.22;5034160;28;20798;-80
2022/08/05 05:52:00;;;;;;;6.77;6.20;;;;;;;27.84;48.17;94953.22;5034373;28;20439;-79
2022/08/05 05:54:27;;;;;;;6.60;6.03;;;;;;;28.01;48.03;94963.03;5034689;28;20438;-79
2022/08/05 05:56:55;;;;;;;7.10;6.47;;;;;;;27.96;47.87;94965.63;5034568;28;20839;-78
2022/08/05 05:59:23;;;;;;;8.77;6.23;;;;;;;27.60;47.70;94961.28;5015308;28;20482;-78
2022/08/05 06:01:49;;;;;;;6.90;6.40;;;;;;;27.64;49.04;94969.75;5034535;28;20512;-78
2022/08/05 06:04:16;;;;;;;6.20;5.80;;;;;;;27.71;47.44;94965.06;5034510;28;20454;-78
2022/08/05 06:06:44;;;;;;;6.70;6.20;;;;;;;27.75;47.88;94969.72;5033934;28;20489;-78
2022/08/05 06:09:11;;;;;;;7.67;6.10;;;;;;;27.71;48.19;94963.16;5015563;28;20452;-79
2022/08/05 06:11:38;;;;;;;7.13;5.70;;;;;;;27.96;47.57;94964.81;5034101;28;20969;-78
2022/08/05 06:14:06;;;;;;;6.67;5.90;;;;;;;28.21;46.58;94959.16;5034072;28;20474;-80
2022/08/05 06:16:33;;;;;;;7.40;6.00;;;;;;;28.47;46.18;94964.03;5033533;28;20501;-78
2022/08/05 06:19:00;;;;;;;6.90;6.20;;;;;;;28.47;45.55;94966.75;5033829;28;20482;-79
2022/08/05 06:21:27;;;;;;;12.80;5.97;;;;;;;28.58;45.68;94963.19;5034743;28;20458;-79
2022/08/05 06:23:54;;;;;;;6.10;5.60;;;;;;;28.84;46.53;94967.19;5033838;28;20442;-79
2022/08/05 06:26:20;;;;;;;9.33;6.50;;;;;;;28.88;45.90;94971.06;5034124;28;20823;-78
2022/08/05 06:28:47;;;;;;;10.20;6.33;;;;;;;28.96;46.30;94968.00;4998911;28;20450;-79
2022/08/05 06:31:15;;;;;;;6.40;5.80;;;;;;;28.84;44.54;94967.19;5016513;28;20443;-79
2022/08/05 06:33:42;;;;;;;5.90;5.40;;;;;;;28.76;45.36;94962.19;5033943;28;20955;-78
2022/08/05 06:36:09;;;;;;;6.50;5.90;;;;;;;28.87;45.21;94964.03;5014794;28;20442;-78
2022/08/05 06:38:36;;;;;;;6.33;5.83;;;;;;;28.95;43.43;94965.56;5033590;28;20482;-79
2022/08/05 06:41:03;;;;;;;6.93;5.67;;;;;;;29.34;43.82;94963.78;5033530;28;20453;-79
2022/08/05 06:43:30;;;;;;;6.73;5.60;;;;;;;29.25;43.66;94959.88;5014941;28;20454;-81
2022/08/05 06:45:57;;;;;;;7.10;6.53;;;;;;;29.29;42.19;94966.41;5033645;28;20447;-79
2022/08/05 06:48:25;;;;;;;9.73;6.40;;;;;;;29.50;44.16;94954.91;5033958;28;20446;-79
2022/08/05 06:50:52;;;;;;;6.07;5.57;;;;;;;29.62;43.96;94959.41;5033880;28;20443;-80
2022/08/05 06:53:19;;;;;;;7.33;6.73;;;;;;;29.75;42.65;94962.56;5035290;28;20442;-79
2022/08/05 06:55:46;;;;;;;7.97;7.37;;;;;;;29.90;42.87;94956.59;5034660;28;20451;-78
2022/08/05 06:58:12;;;;;;;6.83;6.33;;;;;;;30.23;43.15;94960.31;5033213;28;20509;-79
2022/08/05 07:00:39;;;;;;;7.47;6.77;;;;;;;29.96;41.38;94952.88;5033245;28;21023;-79
2022/08/05 07:03:06;;;;;;;8.43;6.27;;;;;;;29.81;41.42;94956.19;5033253;28;20442;-77
2022/08/05 07:05:34;;;;;;;6.00;5.53;;;;;;;30.11;41.72;94947.72;5033151;28;20442;-79
2022/08/05 07:08:01;;;;;;;7.67;5.70;;;;;;;30.32;41.55;94953.38;5033190;28;20806;-79
2022/08/05 07:10:28;;;;;;;7.40;6.80;;;;;;;30.46;41.49;94957.38;5032956;28;20836;-78
2022/08/05 07:18:24;;;;;;;6.37;5.83;;;;;;;29.90;42.68;94945.75;5032740;28;20481;-79
2022/08/05 07:20:53;;;;;;;7.43;6.43;;;;;;;29.98;42.11;94947.22;5032894;28;20465;-79
2022/08/05 07:23:19;;;;;;;5.90;5.50;;;;;;;30.23;42.55;94955.72;5033174;28;20450;-79
2022/08/05 07:25:46;;;;;;;5.73;5.33;;;;;;;30.35;41.88;94955.59;5032855;28;20504;-79
2022/08/05 07:28:13;;;;;;;7.30;6.80;;;;;;;30.50;40.32;94956.59;5032195;28;20734;-79
2022/08/05 07:30:40;;;;;;;5.67;5.17;;;;;;;30.76;40.21;94952.34;5032316;28;20450;-79
2022/08/05 07:33:09;;;;;;;5.67;5.27;;;;;;;31.19;38.04;94960.66;5032474;28;20450;-80
2022/08/05 07:35:36;;;;;;;5.77;5.37;;;;;;;31.34;37.13;94948.06;5032514;28;20482;-80
2022/08/05 07:38:04;;;;;;;6.03;5.43;;;;;;;31.60;37.43;94951.81;5032673;28;20848;-80
2022/08/05 07:40:31;;;;;;;6.37;5.00;;;;;;;31.73;36.83;94948.66;5032259;28;20447;-79
2022/08/05 07:42:58;;;;;;;7.63;6.37;;;;;;;31.77;36.63;94951.66;5032403;28;20457;-79
2022/08/05 07:45:25;;;;;;;5.57;5.17;;;;;;;31.85;36.41;94945.78;5032277;28;20466;-80
2022/08/05 07:47:52;;;;;;;5.63;5.13;;;;;;;32.03;36.97;94944.50;5032319;28;20442;-79
2022/08/05 07:50:19;;;;;;;5.47;5.07;;;;;;;32.33;36.18;94949.31;5032431;28;20478;-79
2022/08/05 07:52:47;;;;;;;5.70;5.30;;;;;;;32.53;35.61;94945.88;5032377;28;20526;-80
2022/08/05 07:55:16;;;;;;;5.80;5.23;;;;;;;32.72;35.16;94943.50;5032531;28;20446;-80
2022/08/05 07:57:43;;;;;;;5.97;5.53;;;;;;;32.78;34.58;94943.25;5031952;28;20450;-81
2022/08/05 08:00:13;;;;;;;5.90;5.30;;;;;;;32.79;35.89;94946.81;5032021;28;20479;-79
2022/08/05 08:02:40;;;;;;;6.13;5.63;;;;;;;32.79;35.52;94949.53;5032120;28;20497;-79
2022/08/05 08:05:07;;;;;;;6.17;5.57;;;;;;;32.74;35.95;94935.91;5031924;28;20453;-79
2022/08/05 08:07:34;;;;;;;7.87;5.70;;;;;;;32.75;35.35;94945.69;5032224;28;20694;-79
2022/08/05 08:10:01;;;;;;;6.90;5.83;;;;;;;32.76;35.69;94947.31;5032045;28;20442;-80
2022/08/05 08:12:29;;;;;;;6.07;5.57;;;;;;;32.64;36.01;94940.22;5031918;28;20454;-79
2022/08/05 08:14:56;;;;;;;5.87;5.37;;;;;;;32.44;36.76;94937.44;5031885;28;20450;-79
2022/08/05 08:17:23;;;;;;;6.03;5.53;;;;;;;32.40;36.95;94941.75;5031851;28;20454;-79
2022/08/05 08:19:50;;;;;;;7.00;6.10;;;;;;;32.32;36.50;94944.97;5031755;28;20494;-79
2022/08/05 08:22:17;;;;;;;5.63;5.23;;;;;;;32.35;37.22;94936.28;5031956;28;20443;-79
2022/08/05 08:24:43;;;;;;;8.83;5.80;;;;;;;32.44;35.76;94937.44;5031839;28;20438;-79
2022/08/05 08:27:10;;;;;;;5.83;5.40;;;;;;;32.27;35.45;94937.63;5031865;28;20496;-79
2022/08/05 08:29:38;;;;;;;6.37;5.77;;;;;;;32.05;37.41;94935.00;5031829;28;20451;-79
2022/08/05 08:32:05;;;;;;;6.63;6.03;;;;;;;32.15;38.17;94933.47;5031795;28;20823;-79
2022/08/05 08:34:32;;;;;;;5.93;4.80;;;;;;;32.38;36.53;94933.03;5032024;28;20929;-79
2022/08/05 08:36:59;;;;;;;5.83;4.77;;;;;;;32.38;35.75;94930.31;5031870;28;20810;-79
2022/08/05 08:39:25;;;;;;;5.53;4.93;;;;;;;32.53;37.19;94929.56;5032053;28;20531;-79
2022/08/05 08:41:55;;;;;;;7.10;4.83;;;;;;;32.70;35.45;94918.50;5016868;28;20529;-79
2022/08/05 08:44:25;;;;;;;9.30;5.70;;;;;;;32.84;37.54;94927.81;5017261;28;20447;-79
2022/08/05 08:46:53;;;;;;;5.83;5.37;;;;;;;32.82;36.15;94932.69;5035909;28;20457;-79
2022/08/05 08:49:23;;;;;;;7.13;6.53;;;;;;;32.87;35.26;94925.34;5035912;28;20454;-79
2022/08/05 08:51:58;;;;;;;7.70;5.40;;;;;;;32.98;36.09;94928.94;5035815;28;20451;-81
2022/08/05 08:54:25;;;;;;;11.63;5.80;;;;;;;32.96;34.34;94931.06;5035636;28;20442;-80
2022/08/05 08:56:52;;;;;;;6.67;5.30;;;;;;;32.93;33.95;94928.91;5036001;28;20458;-80
2022/08/05 08:59:19;;;;;;;5.60;5.17;;;;;;;32.84;35.13;94922.38;5036624;28;20985;-82
2022/08/05 09:01:47;;;;;;;9.43;4.87;;;;;;;32.82;34.81;94919.91;5036876;28;20458;-81
2022/08/05 09:04:16;;;;;;;5.50;4.63;;;;;;;32.92;34.50;94919.09;5036874;28;20439;-80
2022/08/05 09:06:42;;;;;;;7.10;5.57;;;;;;;33.03;34.27;94918.06;5036670;28;20477;-79
2022/08/05 09:09:09;;;;;;;10.50;5.23;;;;;;;33.05;34.30;94913.16;5017987;28;20937;-85
2022/08/05 09:11:37;;;;;;;6.77;5.13;;;;;;;33.18;34.22;94911.81;5037147;28;20453;-82
2022/08/05 09:14:04;;;;;;;8.50;4.60;;;;;;;33.30;32.99;94900.69;5018616;28;20949;-80
2022/08/05 09:16:31;;;;;;;6.53;4.43;;;;;;;33.29;33.83;94899.88;5036477;28;20458;-80
2022/08/05 09:18:58;;;;;;;7.00;4.43;;;;;;;33.38;32.45;94892.81;5036440;28;20985;-82
2022/08/05 09:21:28;;;;;;;5.33;4.93;;;;;;;33.35;34.23;94889.81;5036722;28;20934;-79
2022/08/05 09:24:03;;;;;;;5.37;4.57;;;;;;;33.32;33.14;94891.19;5036823;28;20460;-80
2022/08/05 09:26:30;;;;;;;6.63;4.83;;;;;;;33.35;32.93;94887.09;5036667;28;20530;-82
2022/08/05 09:29:00;;;;;;;4.00;3.80;;;;;;;32.51;32.42;94886.38;5036381;28;20801;-81
2022/08/05 09:31:27;;;;;;;5.57;5.07;;;;;;;32.54;32.34;94883.13;5036464;28;20486;-81
2022/08/05 09:33:55;;;;;;;6.20;4.40;;;;;;;32.38;32.49;94883.31;5036646;28;20438;-81
2022/08/05 09:36:22;;;;;;;4.23;3.63;;;;;;;32.47;33.40;94870.88;5036089;28;20438;-80
2022/08/05 09:39:02;;;;;;;5.60;4.47;;;;;;;32.43;31.57;94867.88;5035877;28;20565;-81
2022/08/05 09:41:28;;;;;;;5.07;4.60;;;;;;;32.42;33.57;94873.59;5035970;28;20454;-79
2022/08/05 09:43:56;;;;;;;19.57;5.90;;;;;;;32.29;33.42;94864.00;5035847;28;20446;-80
2022/08/05 09:46:27;;;;;;;5.50;4.37;;;;;;;32.41;33.29;94867.34;5035599;28;20926;-82
2022/08/05 09:48:55;;;;;;;5.00;4.50;;;;;;;32.39;33.56;94866.78;5036405;28;20438;-80
2022/08/05 09:51:32;;;;;;;7.37;3.93;;;;;;;32.35;32.05;94866.47;5035533;28;20427;-81
2022/08/05 09:54:04;;;;;;;3.70;3.40;;;;;;;32.35;32.83;94858.31;5036584;28;20770;-78
2022/08/05 09:56:33;;;;;;;10.20;5.03;;;;;;;32.38;34.51;94858.88;5035752;28;20434;-80
2022/08/05 09:59:01;;;;;;;4.80;4.40;;;;;;;31.91;34.99;94857.84;5035693;28;20514;-81
2022/08/05 10:01:32;;;;;;;6.40;4.23;;;;;;;32.15;34.05;94857.44;5036408;28;20442;-80
2022/08/05 10:04:02;;;;;;;4.37;3.93;;;;;;;32.12;34.07;94847.91;5036013;28;20859;-80
2022/08/05 10:06:29;;;;;;;7.00;5.27;;;;;;;32.18;34.50;94851.47;5035829;28;20439;-79
2022/08/05 10:08:56;;;;;;;4.87;4.57;;;;;;;32.23;33.62;94844.13;5035632;28;20488;-79
2022/08/05 10:11:25;;;;;;;4.53;4.00;;;;;;;32.14;32.30;94843.03;5035635;28;20438;-81
2022/08/05 10:13:52;;;;;;;5.10;4.60;;;;;;;32.02;33.48;94843.22;5035771;28;20439;-80
2022/08/05 10:16:38;;;;;;;9.10;4.80;;;;;;;31.92;32.42;94843.19;5035696;28;20458;-80
2022/08/05 10:19:06;;;;;;;7.00;4.87;;;;;;;31.76;33.75;94846.91;5016745;28;20528;-80
2022/08/05 10:21:33;;;;;;;6.67;4.60;;;;;;;31.79;34.24;94849.09;5035528;28;20451;-80
2022/08/05 10:24:00;;;;;;;9.87;4.90;;;;;;;31.67;32.12;94834.91;5035098;28;20485;-80
2022/08/05 10:26:28;;;;;;;5.97;5.37;;;;;;;31.57;32.57;94832.13;5035152;28;20435;-80
2022/08/05 10:28:55;;;;;;;4.93;4.53;;;;;;;31.70;34.74;94832.47;5035306;28;20438;-80
2022/08/05 10:31:22;;;;;;;6.80;4.67;;;;;;;31.75;33.85;94829.00;5034883;28;20453;-80
2022/08/05 10:33:49;;;;;;;6.43;5.77;;;;;;;31.80;34.96;94828.19;5035058;28;20446;-80
2022/08/05 10:36:16;;;;;;;8.23;5.00;;;;;;;31.74;33.94;94830.88;5034837;28;20431;-80
2022/08/05 10:38:48;;;;;;;5.73;5.23;;;;;;;31.78;32.72;94828.47;5035555;28;20462;-80
2022/08/05 10:41:21;;;;;;;5.03;4.53;;;;;;;31.65;33.56;94829.72;5035025;28;20430;-81
2022/08/05 10:43:58;;;;;;;5.50;5.10;;;;;;;31.59;33.44;94822.66;5035022;28;20446;-80
2022/08/05 10:46:24;;;;;;;5.30;4.80;;;;;;;31.69;34.05;94824.59;5034654;28;20529;-81
2022/08/05 10:48:57;;;;;;;5.23;4.73;;;;;;;31.58;32.75;94815.59;5016152;28;20442;-80
2022/08/05 10:51:24;;;;;;;5.00;4.70;;;;;;;31.71;34.51;94815.13;5034612;28;20442;-82
2022/08/05 10:53:56;;;;;;;5.67;5.17;;;;;;;31.57;33.35;94815.84;5034876;28;20451;-80
2022/08/05 10:56:25;;;;;;;6.30;5.23;;;;;;;31.53;33.59;94809.31;5033918;28;20857;-81
2022/08/05 10:59:05;;;;;;;5.20;4.73;;;;;;;31.56;32.72;94806.09;5033517;28;20454;-81
2022/08/05 11:01:34;;;;;;;5.57;5.17;;;;;;;31.54;34.78;94810.97;5034344;28;20460;-81
2022/08/05 11:04:04;;;;;;;6.23;5.73;;;;;;;31.62;34.56;94802.31;5034253;28;20875;-82
2022/08/05 11:06:33;;;;;;;5.73;5.23;;;;;;;31.68;33.05;94803.97;5034412;28;20446;-81
2022/08/05 11:09:27;;;;;;;6.53;4.40;;;;;;;31.78;33.25;94798.59;5033932;28;20933;-81
2022/08/05 11:11:56;;;;;;;4.90;4.50;;;;;;;31.72;31.70;94799.66;5011420;28;20447;-81
2022/08/05 11:14:27;;;;;;;4.93;4.63;;;;;;;31.72;32.91;94795.06;5011948;28;20483;-81
2022/08/05 11:17:33;;;;;;;5.67;5.17;;;;;;;31.92;33.47;94790.81;5012520;28;20440;-81
2022/08/05 11:20:00;;;;;;;5.57;5.00;;;;;;;32.01;32.92;94792.72;5012214;28;20694;-81
2022/08/05 11:22:42;;;;;;;4.90;4.40;;;;;;;32.24;34.09;94796.06;5011988;28;20440;-81
2022/08/05 11:25:31;;;;;;;5.20;4.70;;;;;;;32.29;32.13;94787.97;5012171;28;20432;-81
2022/08/05 11:28:36;;;;;;;7.03;5.53;;;;;;;32.40;32.61;94784.19;5011816;28;20460;-81
2022/08/05 11:31:26;;;;;;;5.67;5.10;;;;;;;32.49;32.48;94779.88;5012185;28;20451;-81
2022/08/05 11:33:55;;;;;;;8.13;4.80;;;;;;;32.40;32.46;94778.78;5012178;28;20536;-81
2022/08/05 11:36:45;;;;;;;6.87;5.13;;;;;;;32.30;32.01;94773.28;5012032;28;20539;-82
2022/08/05 11:39:13;;;;;;;5.57;4.80;;;;;;;32.32;32.15;94776.56;5011763;28;20487;-81
2022/08/05 11:41:41;;;;;;;6.70;5.20;;;;;;;32.28;32.30;94770.84;5012008;28;20440;-81
2022/08/05 11:44:11;;;;;;;5.87;5.33;;;;;;;32.29;32.18;94769.75;5011926;28;20443;-81
2022/08/05 11:46:41;;;;;;;6.73;5.23;;;;;;;32.32;32.36;94771.94;5013600;28;20903;-81
2022/08/05 11:49:13;;;;;;;5.63;5.23;;;;;;;32.35;34.00;94765.16;5033282;28;20850;-81